sensor_id;sensor_type;location;lat;lon;timestamp;pressure;altitude;pressure_sealevel;temperature;humidity
13314;BME280;6725;48.112;11.604;2023-05-12T00:00:17;93606.88;;;10.17;100.00
13314;BME280;6725;48.112;11.604;2023-05-12T00:02:43;93604.91;;;10.17;100.00
13314;BME280;6725;48.112;11.604;2023-05-12T00:05:09;93606.88;;;10.17;100.00
13314;BME280;6725;48.112;11.604;2023-05-12T00:07:34;93610.81;;;10.16;100.00
13314;BME280;6725;48.112;11.604;2023-05-12T00:10:00;93613.19;;;10.13;100.00
13314;BME280;6725;48.112;11.604;2023-05-12T00:12:26;93608.50;;;10.14;100.00
13314;BME280;6725;48.112;11.604;2023-05-12T00:14:51;93615.28;;;10.09;100.00
13314;BME280;6725;48.112;11.604;2023-05-12T00:17:16;93622.19;;;10.01;100.00
13314;BME280;6725;48.112;11.604;2023-05-12T00:19:42;93629.38;;;9.95;100.00
13314;BME280;6725;48.112;11.604;2023-05-12T00:22:11;93627.88;;;9.94;100.00
13314;BME280;6725;48.112;11.604;2023-05-12T00:24:36;93624.72;;;9.96;100.00
13314;BME280;6725;48.112;11.604;2023-05-12T00:27:02;93626.34;;;9.93;100.00
13314;BME280;6725;48.112;11.604;2023-05-12T00:29:28;93615.44;;;9.93;100.00
13314;BME280;6725;48.112;11.604;2023-05-12T00:31:54;93623.94;;;9.95;100.00
13314;BME280;6725;48.112;11.604;2023-05-12T00:34:19;93619.34;;;9.92;100.00
13314;BME280;6725;48.112;11.604;2023-05-12T00:36:45;93621.34;;;9.92;100.00
13314;BME280;6725;48.112;11.604;2023-05-12T00:39:10;93617.75;;;9.95;100.00
13314;BME280;6725;48.112;11.604;2023-05-12T00:41:35;93612.28;;;9.95;100.00
13314;BME280;6725;48.112;11.604;2023-05-12T00:44:01;93614.09;;;9.98;100.00
13314;BME280;6725;48.112;11.604;2023-05-12T00:46:26;93616.97;;;9.94;100.00
13314;BME280;6725;48.112;11.604;2023-05-12T00:48:52;93615.69;;;9.86;100.00
13314;BME280;6725;48.112;11.604;2023-05-12T00:51:17;93622.78;;;9.84;100.00
13314;BME280;6725;48.112;11.604;2023-05-12T00:53:43;93620.81;;;9.84;100.00
13314;BME280;6725;48.112;11.604;2023-05-12T00:56:10;93621.38;;;9.79;100.00
13314;BME280;6725;48.112;11.604;2023-05-12T00:58:36;93627.72;;;9.76;100.00
13314;BME280;6725;48.112;11.604;2023-05-12T01:01:01;93622.25;;;9.76;100.00
13314;BME280;6725;48.112;11.604;2023-05-12T01:03:26;93622.59;;;9.78;100.00
13314;BME280;6725;48.112;11.604;2023-05-12T01:06:12;93618.22;;;9.81;100.00
13314;BME280;6725;48.112;11.604;2023-05-12T01:08:39;93617.44;;;9.80;100.00
13314;BME280;6725;48.112;11.604;2023-05-12T01:11:06;93615.78;;;9.83;100.00
13314;BME280;6725;48.112;11.604;2023-05-12T01:13:31;93625.19;;;9.82;100.00
13314;BME280;6725;48.112;11.604;2023-05-12T01:15:58;93612.31;;;9.82;100.00
13314;BME280;6725;48.112;11.604;2023-05-12T01:18:26;93613.84;;;9.83;100.00
13314;BME280;6725;48.112;11.604;2023-05-12T01:20:52;93610.34;;;9.83;100.00
13314;BME280;6725;48.112;11.604;2023-05-12T01:23:23;93607.19;;;9.84;100.00
13314;BME280;6725;48.112;11.604;2023-05-12T01:25:49;93617.22;;;9.87;100.00
13314;BME280;6725;48.112;11.604;2023-05-12T01:28:16;93610.25;;;9.86;100.00
13314;BME280;6725;48.112;11.604;2023-05-12T01:30:42;93608.72;;;9.85;100.00
13314;BME280;6725;48.112;11.604;2023-05-12T01:33:08;93612.63;;;9.84;100.00
13314;BME280;6725;48.112;11.604;2023-05-12T01:35:33;93612.31;;;9.82;100.00
13314;BME280;6725;48.112;11.604;2023-05-12T01:37:59;93608.38;;;9.83;100.00
13314;BME280;6725;48.112;11.604;2023-05-12T01:40:24;93618.53;;;9.83;100.00
13314;BME280;6725;48.112;11.604;2023-05-12T01:42:50;93610.47;;;9.79;100.00
13314;BME280;6725;48.112;11.604;2023-05-12T01:45:16;93615.50;;;9.81;100.00
13314;BME280;6725;48.112;11.604;2023-05-12T01:47:41;93618.31;;;9.77;100.00
13314;BME280;6725;48.112;11.604;2023-05-12T01:50:07;93619.97;;;9.75;100.00
13314;BME280;6725;48.112;11.604;2023-05-12T01:52:32;93617.69;;;9.73;100.00
13314;BME280;6725;48.112;11.604;2023-05-12T01:54:58;93612.22;;;9.73;100.00
13314;BME280;6725;48.112;11.604;2023-05-12T01:57:23;93613.44;;;9.72;100.00
13314;BME280;6725;48.112;11.604;2023-05-12T01:59:49;93617.81;;;9.70;100.00
13314;BME280;6725;48.112;11.604;2023-05-12T02:02:14;93618.25;;;9.68;100.00
13314;BME280;6725;48.112;11.604;2023-05-12T02:04:39;93623.06;;;9.64;100.00
13314;BME280;6725;48.112;11.604;2023-05-12T02:07:05;93622.00;;;9.62;100.00
13314;BME280;6725;48.112;11.604;2023-05-12T02:09:30;93615.00;;;9.61;100.00
13314;BME280;6725;48.112;11.604;2023-05-12T02:11:56;93621.66;;;9.60;100.00
13314;BME280;6725;48.112;11.604;2023-05-12T02:14:21;93617.28;;;9.62;100.00
13314;BME280;6725;48.112;11.604;2023-05-12T02:16:46;93618.16;;;9.59;100.00
13314;BME280;6725;48.112;11.604;2023-05-12T02:19:16;93614.25;;;9.60;100.00
13314;BME280;6725;48.112;11.604;2023-05-12T02:21:42;93618.50;;;9.61;100.00
13314;BME280;6725;48.112;11.604;2023-05-12T02:24:10;93613.38;;;9.63;100.00
13314;BME280;6725;48.112;11.604;2023-05-12T02:26:35;93614.56;;;9.62;100.00
13314;BME280;6725;48.112;11.604;2023-05-12T02:29:00;93608.38;;;9.62;100.00
13314;BME280;6725;48.112;11.604;2023-05-12T02:31:26;93609.44;;;9.64;100.00
13314;BME280;6725;48.112;11.604;2023-05-12T02:33:51;93600.69;;;9.69;100.00
13314;BME280;6725;48.112;11.604;2023-05-12T02:36:16;93603.75;;;9.71;100.00
13314;BME280;6725;48.112;11.604;2023-05-12T02:38:42;93606.47;;;9.71;100.00
13314;BME280;6725;48.112;11.604;2023-05-12T02:41:07;93606.91;;;9.70;100.00
13314;BME280;6725;48.112;11.604;2023-05-12T02:43:32;93601.34;;;9.73;100.00
13314;BME280;6725;48.112;11.604;2023-05-12T02:45:58;93606.16;;;9.69;100.00
13314;BME280;6725;48.112;11.604;2023-05-12T02:48:23;93605.41;;;9.69;100.00
13314;BME280;6725;48.112;11.604;2023-05-12T02:50:48;93610.09;;;9.68;100.00
13314;BME280;6725;48.112;11.604;2023-05-12T02:53:14;93613.69;;;9.65;100.00
13314;BME280;6725;48.112;11.604;2023-05-12T02:55:39;93610.31;;;9.61;100.00
13314;BME280;6725;48.112;11.604;2023-05-12T02:58:04;93620.00;;;9.62;100.00
13314;BME280;6725;48.112;11.604;2023-05-12T03:00:30;93615.91;;;9.58;100.00
13314;BME280;6725;48.112;11.604;2023-05-12T03:02:55;93616.19;;;9.60;100.00
13314;BME280;6725;48.112;11.604;2023-05-12T03:05:20;93613.38;;;9.63;100.00
13314;BME280;6725;48.112;11.604;2023-05-12T03:07:49;93612.91;;;9.65;100.00
13314;BME280;6725;48.112;11.604;2023-05-12T03:10:16;93610.09;;;9.68;100.00
13314;BME280;6725;48.112;11.604;2023-05-12T03:12:41;93614.91;;;9.64;100.00
13314;BME280;6725;48.112;11.604;2023-05-12T03:15:07;93624.81;;;9.58;100.00
13314;BME280;6725;48.112;11.604;2023-05-12T03:17:33;93631.47;;;9.57;100.00
13314;BME280;6725;48.112;11.604;2023-05-12T03:19:58;93637.03;;;9.54;100.00
13314;BME280;6725;48.112;11.604;2023-05-12T03:22:24;93633.13;;;9.55;100.00
13314;BME280;6725;48.112;11.604;2023-05-12T03:24:49;93632.34;;;9.54;100.00
13314;BME280;6725;48.112;11.604;2023-05-12T03:27:15;93619.69;;;9.60;100.00
13314;BME280;6725;48.112;11.604;2023-05-12T03:29:41;93637.78;;;9.54;100.00
13314;BME280;6725;48.112;11.604;2023-05-12T03:32:06;93628.84;;;9.54;100.00
13314;BME280;6725;48.112;11.604;2023-05-12T03:34:32;93640.97;;;9.53;100.00
13314;BME280;6725;48.112;11.604;2023-05-12T03:36:58;93633.88;;;9.55;100.00
13314;BME280;6725;48.112;11.604;2023-05-12T03:39:23;93641.53;;;9.48;100.00
13314;BME280;6725;48.112;11.604;2023-05-12T03:41:49;93636.38;;;9.50;100.00
13314;BME280;6725;48.112;11.604;2023-05-12T03:44:14;93631.94;;;9.43;100.00
13314;BME280;6725;48.112;11.604;2023-05-12T03:46:40;93635.00;;;9.45;100.00
13314;BME280;6725;48.112;11.604;2023-05-12T03:49:05;93633.56;;;9.41;100.00
13314;BME280;6725;48.112;11.604;2023-05-12T03:51:31;93626.38;;;9.47;100.00
13314;BME280;6725;48.112;11.604;2023-05-12T03:53:56;93631.84;;;9.47;100.00
13314;BME280;6725;48.112;11.604;2023-05-12T03:56:21;93628.22;;;9.50;100.00
13314;BME280;6725;48.112;11.604;2023-05-12T03:58:47;93632.78;;;9.53;100.00
13314;BME280;6725;48.112;11.604;2023-05-12T04:01:13;93633.22;;;9.51;100.00
13314;BME280;6725;48.112;11.604;2023-05-12T04:03:38;93628.41;;;9.55;100.00
13314;BME280;6725;48.112;11.604;2023-05-12T04:06:05;93640.75;;;9.47;100.00
13314;BME280;6725;48.112;11.604;2023-05-12T04:08:31;93630.19;;;9.49;100.00
13314;BME280;6725;48.112;11.604;2023-05-12T04:10:57;93631.13;;;9.55;100.00
13314;BME280;6725;48.112;11.604;2023-05-12T04:13:23;93635.91;;;9.64;100.00
13314;BME280;6725;48.112;11.604;2023-05-12T04:15:49;93631.56;;;9.66;100.00
13314;BME280;6725;48.112;11.604;2023-05-12T04:18:15;93633.16;;;9.76;100.00
13314;BME280;6725;48.112;11.604;2023-05-12T04:20:41;93629.00;;;9.84;100.00
13314;BME280;6725;48.112;11.604;2023-05-12T04:23:06;93623.94;;;9.95;100.00
13314;BME280;6725;48.112;11.604;2023-05-12T04:25:32;93623.81;;;9.99;100.00
13314;BME280;6725;48.112;11.604;2023-05-12T04:27:58;93620.16;;;10.14;100.00
13314;BME280;6725;48.112;11.604;2023-05-12T04:30:23;93618.41;;;10.21;100.00
13314;BME280;6725;48.112;11.604;2023-05-12T04:32:48;93621.22;;;10.30;100.00
13314;BME280;6725;48.112;11.604;2023-05-12T04:35:14;93625.19;;;10.38;100.00
13314;BME280;6725;48.112;11.604;2023-05-12T04:37:39;93627.50;;;10.39;100.00
13314;BME280;6725;48.112;11.604;2023-05-12T04:40:07;93626.66;;;10.51;100.00
13314;BME280;6725;48.112;11.604;2023-05-12T04:42:34;93635.47;;;10.55;100.00
13314;BME280;6725;48.112;11.604;2023-05-12T04:44:59;93633.25;;;10.63;100.00
13314;BME280;6725;48.112;11.604;2023-05-12T04:47:24;93643.91;;;10.70;100.00
13314;BME280;6725;48.112;11.604;2023-05-12T04:49:50;93658.25;;;10.61;100.00
13314;BME280;6725;48.112;11.604;2023-05-12T04:52:15;93662.66;;;10.59;100.00
13314;BME280;6725;48.112;11.604;2023-05-12T04:54:41;93670.69;;;10.62;100.00
13314;BME280;6725;48.112;11.604;2023-05-12T04:57:06;93674.19;;;10.63;100.00
13314;BME280;6725;48.112;11.604;2023-05-12T04:59:32;93679.94;;;10.65;100.00
13314;BME280;6725;48.112;11.604;2023-05-12T05:01:57;93682.13;;;10.70;100.00
13314;BME280;6725;48.112;11.604;2023-05-12T05:04:23;93686.81;;;10.69;100.00
13314;BME280;6725;48.112;11.604;2023-05-12T05:06:48;93698.50;;;10.70;100.00
13314;BME280;6725;48.112;11.604;2023-05-12T05:09:14;93706.69;;;10.70;100.00
13314;BME280;6725;48.112;11.604;2023-05-12T05:11:39;93710.06;;;10.74;100.00
13314;BME280;6725;48.112;11.604;2023-05-12T05:14:04;93714.78;;;10.82;100.00
13314;BME280;6725;48.112;11.604;2023-05-12T05:16:30;93706.84;;;10.97;100.00
13314;BME280;6725;48.112;11.604;2023-05-12T05:18:55;93714.81;;;11.13;100.00
13314;BME280;6725;48.112;11.604;2023-05-12T05:21:21;93709.59;;;11.27;100.00
13314;BME280;6725;48.112;11.604;2023-05-12T05:23:46;93717.09;;;11.36;100.00
13314;BME280;6725;48.112;11.604;2023-05-12T05:26:11;93728.38;;;11.47;100.00
13314;BME280;6725;48.112;11.604;2023-05-12T05:28:37;93746.41;;;11.44;100.00
13314;BME280;6725;48.112;11.604;2023-05-12T05:31:04;93772.22;;;11.43;100.00
13314;BME280;6725;48.112;11.604;2023-05-12T05:33:30;93778.81;;;11.55;100.00
13314;BME280;6725;48.112;11.604;2023-05-12T05:35:55;93810.94;;;11.63;100.00
13314;BME280;6725;48.112;11.604;2023-05-12T05:38:21;93828.41;;;11.66;100.00
13314;BME280;6725;48.112;11.604;2023-05-12T05:40:46;93886.28;;;11.64;100.00
13314;BME280;6725;48.112;11.604;2023-05-12T05:43:12;93935.13;;;11.75;100.00
13314;BME280;6725;48.112;11.604;2023-05-12T05:45:37;93965.81;;;11.79;100.00
13314;BME280;6725;48.112;11.604;2023-05-12T05:48:02;94008.41;;;11.80;100.00
13314;BME280;6725;48.112;11.604;2023-05-12T05:50:28;94020.13;;;12.02;100.00
13314;BME280;6725;48.112;11.604;2023-05-12T05:52:53;94039.94;;;12.15;100.00
13314;BME280;6725;48.112;11.604;2023-05-12T05:55:20;94068.28;;;12.21;100.00
13314;BME280;6725;48.112;11.604;2023-05-12T05:57:46;94108.13;;;12.22;100.00
13314;BME280;6725;48.112;11.604;2023-05-12T06:00:11;94140.03;;;12.37;100.00
13314;BME280;6725;48.112;11.604;2023-05-12T06:02:38;94172.75;;;12.41;100.00
13314;BME280;6725;48.112;11.604;2023-05-12T06:05:04;94229.84;;;12.30;100.00
13314;BME280;6725;48.112;11.604;2023-05-12T06:07:30;94279.34;;;12.23;100.00
13314;BME280;6725;48.112;11.604;2023-05-12T06:09:56;94310.00;;;12.18;100.00
13314;BME280;6725;48.112;11.604;2023-05-12T06:12:21;94340.78;;;12.22;100.00
13314;BME280;6725;48.112;11.604;2023-05-12T06:14:46;94363.53;;;12.31;100.00
13314;BME280;6725;48.112;11.604;2023-05-12T06:17:12;94406.25;;;12.29;100.00
13314;BME280;6725;48.112;11.604;2023-05-12T06:19:37;94468.38;;;11.91;100.00
13314;BME280;6725;48.112;11.604;2023-05-12T06:22:02;94496.88;;;12.06;100.00
13314;BME280;6725;48.112;11.604;2023-05-12T06:24:28;94515.59;;;12.07;100.00
13314;BME280;6725;48.112;11.604;2023-05-12T06:26:53;94535.44;;;12.11;100.00
13314;BME280;6725;48.112;11.604;2023-05-12T06:29:18;94552.75;;;12.21;100.00
13314;BME280;6725;48.112;11.604;2023-05-12T06:31:45;94565.38;;;12.31;100.00
13314;BME280;6725;48.112;11.604;2023-05-12T06:34:11;94575.13;;;12.32;100.00
13314;BME280;6725;48.112;11.604;2023-05-12T06:36:36;94586.25;;;12.25;100.00
13314;BME280;6725;48.112;11.604;2023-05-12T06:39:01;94619.97;;;12.22;100.00
13314;BME280;6725;48.112;11.604;2023-05-12T06:41:27;94662.81;;;11.84;100.00
13314;BME280;6725;48.112;11.604;2023-05-12T06:43:52;94671.16;;;12.09;100.00
13314;BME280;6725;48.112;11.604;2023-05-12T06:46:17;94680.88;;;12.26;100.00
13314;BME280;6725;48.112;11.604;2023-05-12T06:48:43;94701.53;;;12.43;100.00
13314;BME280;6725;48.112;11.604;2023-05-12T06:51:08;94730.81;;;12.46;100.00
13314;BME280;6725;48.112;11.604;2023-05-12T06:53:34;94749.81;;;12.53;100.00
13314;BME280;6725;48.112;11.604;2023-05-12T06:56:03;94767.47;;;12.80;100.00
13314;BME280;6725;48.112;11.604;2023-05-12T06:58:29;94797.84;;;12.70;100.00
13314;BME280;6725;48.112;11.604;2023-05-12T07:00:54;94824.75;;;12.75;100.00
13314;BME280;6725;48.112;11.604;2023-05-12T07:03:19;94838.28;;;12.82;100.00
13314;BME280;6725;48.112;11.604;2023-05-12T07:05:45;94840.63;;;13.12;100.00
13314;BME280;6725;48.112;11.604;2023-05-12T07:08:11;94848.00;;;13.56;100.00
13314;BME280;6725;48.112;11.604;2023-05-12T07:10:36;94890.22;;;13.87;100.00
13314;BME280;6725;48.112;11.604;2023-05-12T07:13:02;94899.66;;;13.86;100.00
13314;BME280;6725;48.112;11.604;2023-05-12T07:15:28;94930.31;;;13.56;100.00
13314;BME280;6725;48.112;11.604;2023-05-12T07:17:53;94931.00;;;13.60;100.00
13314;BME280;6725;48.112;11.604;2023-05-12T07:20:20;94935.69;;;13.60;100.00
13314;BME280;6725;48.112;11.604;2023-05-12T07:22:46;94945.91;;;13.59;100.00
13314;BME280;6725;48.112;11.604;2023-05-12T07:25:11;94947.25;;;13.67;100.00
13314;BME280;6725;48.112;11.604;2023-05-12T07:27:37;94952.75;;;13.67;100.00
13314;BME280;6725;48.112;11.604;2023-05-12T07:30:04;94963.84;;;13.76;100.00
13314;BME280;6725;48.112;11.604;2023-05-12T07:32:30;94958.88;;;14.53;100.00
13314;BME280;6725;48.112;11.604;2023-05-12T07:34:55;94971.63;;;14.72;100.00
13314;BME280;6725;48.112;11.604;2023-05-12T07:37:20;94979.34;;;14.77;100.00
13314;BME280;6725;48.112;11.604;2023-05-12T07:39:46;94991.31;;;15.08;100.00
13314;BME280;6725;48.112;11.604;2023-05-12T07:42:11;94994.41;;;14.98;100.00
13314;BME280;6725;48.112;11.604;2023-05-12T07:44:37;95000.44;;;15.05;100.00
13314;BME280;6725;48.112;11.604;2023-05-12T07:47:02;94996.47;;;15.31;100.00
13314;BME280;6725;48.112;11.604;2023-05-12T07:49:27;95006.06;;;15.39;100.00
13314;BME280;6725;48.112;11.604;2023-05-12T07:51:53;95004.41;;;15.29;100.00
13314;BME280;6725;48.112;11.604;2023-05-12T07:54:18;95013.88;;;14.78;100.00
13314;BME280;6725;48.112;11.604;2023-05-12T07:56:44;95013.53;;;14.51;100.00
13314;BME280;6725;48.112;11.604;2023-05-12T07:59:09;95010.78;;;14.10;100.00
13314;BME280;6725;48.112;11.604;2023-05-12T08:01:35;95011.44;;;14.43;100.00
13314;BME280;6725;48.112;11.604;2023-05-12T08:04:01;95011.84;;;14.41;100.00
13314;BME280;6725;48.112;11.604;2023-05-12T08:06:26;95007.63;;;14.24;100.00
13314;BME280;6725;48.112;11.604;2023-05-12T08:08:51;95006.81;;;14.11;100.00
13314;BME280;6725;48.112;11.604;2023-05-12T08:11:17;95000.34;;;14.18;100.00
13314;BME280;6725;48.112;11.604;2023-05-12T08:13:42;94999.97;;;14.32;100.00
13314;BME280;6725;48.112;11.604;2023-05-12T08:16:08;95005.28;;;14.51;100.00
13314;BME280;6725;48.112;11.604;2023-05-12T08:18:33;95005.53;;;14.16;100.00
13314;BME280;6725;48.112;11.604;2023-05-12T08:20:58;95001.97;;;13.74;100.00
13314;BME280;6725;48.112;11.604;2023-05-12T08:23:24;95004.38;;;14.29;100.00
13314;BME280;6725;48.112;11.604;2023-05-12T08:25:49;95007.63;;;14.24;100.00
13314;BME280;6725;48.112;11.604;2023-05-12T08:28:14;95005.00;;;14.05;100.00
13314;BME280;6725;48.112;11.604;2023-05-12T08:30:41;95007.03;;;13.88;100.00
13314;BME280;6725;48.112;11.604;2023-05-12T08:33:06;95018.72;;;13.92;100.00
13314;BME280;6725;48.112;11.604;2023-05-12T08:35:32;95012.53;;;14.45;100.00
13314;BME280;6725;48.112;11.604;2023-05-12T08:37:57;95020.00;;;14.57;100.00
13314;BME280;6725;48.112;11.604;2023-05-12T08:40:24;95025.72;;;14.50;100.00
13314;BME280;6725;48.112;11.604;2023-05-12T08:43:06;95019.56;;;14.59;100.00
13314;BME280;6725;48.112;11.604;2023-05-12T08:45:35;95016.53;;;14.69;100.00
13314;BME280;6725;48.112;11.604;2023-05-12T08:48:01;95024.66;;;15.10;100.00
13314;BME280;6725;48.112;11.604;2023-05-12T08:50:29;95028.38;;;15.41;100.00
13314;BME280;6725;48.112;11.604;2023-05-12T08:52:55;95037.66;;;15.81;100.00
13314;BME280;6725;48.112;11.604;2023-05-12T08:55:21;95035.88;;;15.53;100.00
13314;BME280;6725;48.112;11.604;2023-05-12T08:57:47;95035.44;;;16.97;100.00
13314;BME280;6725;48.112;11.604;2023-05-12T09:00:14;95032.47;;;17.70;100.00
13314;BME280;6725;48.112;11.604;2023-05-12T09:02:41;95043.19;;;17.20;100.00
13314;BME280;6725;48.112;11.604;2023-05-12T09:05:10;95040.50;;;16.68;100.00
13314;BME280;6725;48.112;11.604;2023-05-12T09:07:39;95044.16;;;15.87;100.00
13314;BME280;6725;48.112;11.604;2023-05-12T09:10:13;95042.31;;;15.72;100.00
13314;BME280;6725;48.112;11.604;2023-05-12T09:12:40;95035.00;;;15.31;100.00
13314;BME280;6725;48.112;11.604;2023-05-12T09:15:07;95040.50;;;15.31;100.00
13314;BME280;6725;48.112;11.604;2023-05-12T09:17:35;95039.28;;;15.20;100.00
13314;BME280;6725;48.112;11.604;2023-05-12T09:20:01;95046.22;;;14.99;100.00
13314;BME280;6725;48.112;11.604;2023-05-12T09:22:32;95043.56;;;14.83;100.00
13314;BME280;6725;48.112;11.604;2023-05-12T09:25:13;95042.16;;;14.91;100.00
13314;BME280;6725;48.112;11.604;2023-05-12T09:27:39;95040.03;;;14.70;100.00
13314;BME280;6725;48.112;11.604;2023-05-12T09:30:05;95037.41;;;15.04;100.00
13314;BME280;6725;48.112;11.604;2023-05-12T09:32:32;95031.13;;;15.29;100.00
13314;BME280;6725;48.112;11.604;2023-05-12T09:35:04;95047.66;;;15.04;100.00
13314;BME280;6725;48.112;11.604;2023-05-12T09:37:31;95046.34;;;15.46;100.00
13314;BME280;6725;48.112;11.604;2023-05-12T09:40:05;95044.88;;;15.66;100.00
13314;BME280;6725;48.112;11.604;2023-05-12T09:42:32;95043.56;;;15.58;100.00
13314;BME280;6725;48.112;11.604;2023-05-12T09:45:05;95043.84;;;15.73;100.00
13314;BME280;6725;48.112;11.604;2023-05-12T09:47:38;95040.84;;;15.46;100.00
13314;BME280;6725;48.112;11.604;2023-05-12T09:50:05;95040.72;;;15.24;100.00
13314;BME280;6725;48.112;11.604;2023-05-12T09:52:35;95048.84;;;14.90;100.00
13314;BME280;6725;48.112;11.604;2023-05-12T09:55:08;95040.47;;;14.69;100.00
13314;BME280;6725;48.112;11.604;2023-05-12T09:57:44;95041.56;;;14.71;100.00
13314;BME280;6725;48.112;11.604;2023-05-12T10:00:13;95043.88;;;14.60;100.00
13314;BME280;6725;48.112;11.604;2023-05-12T10:02:41;95033.91;;;14.79;100.00
13314;BME280;6725;48.112;11.604;2023-05-12T10:05:14;95036.53;;;14.82;100.00
13314;BME280;6725;48.112;11.604;2023-05-12T10:07:47;95035.22;;;14.87;100.00
13314;BME280;6725;48.112;11.604;2023-05-12T10:10:21;95031.91;;;15.04;100.00
13314;BME280;6725;48.112;11.604;2023-05-12T10:12:47;95043.25;;;15.06;100.00
13314;BME280;6725;48.112;11.604;2023-05-12T10:15:14;95047.75;;;15.25;100.00
13314;BME280;6725;48.112;11.604;2023-05-12T10:17:42;95045.81;;;15.38;100.00
13314;BME280;6725;48.112;11.604;2023-05-12T10:20:09;95049.94;;;15.55;100.00
13314;BME280;6725;48.112;11.604;2023-05-12T10:22:38;95046.88;;;15.03;100.00
13314;BME280;6725;48.112;11.604;2023-05-12T10:25:05;95050.94;;;15.24;100.00
13314;BME280;6725;48.112;11.604;2023-05-12T10:27:32;95053.47;;;15.18;100.00
13314;BME280;6725;48.112;11.604;2023-05-12T10:29:58;95050.53;;;15.50;100.00
13314;BME280;6725;48.112;11.604;2023-05-12T10:32:25;95055.91;;;15.16;100.00
13314;BME280;6725;48.112;11.604;2023-05-12T10:34:51;95052.47;;;15.00;100.00
13314;BME280;6725;48.112;11.604;2023-05-12T10:37:16;95064.63;;;15.15;100.00
13314;BME280;6725;48.112;11.604;2023-05-12T10:39:50;95057.56;;;15.26;100.00
13314;BME280;6725;48.112;11.604;2023-05-12T10:42:19;95049.53;;;15.19;100.00
13314;BME280;6725;48.112;11.604;2023-05-12T10:44:53;95052.06;;;15.51;100.00
13314;BME280;6725;48.112;11.604;2023-05-12T10:47:23;95063.84;;;15.39;100.00
13314;BME280;6725;48.112;11.604;2023-05-12T10:49:54;95058.22;;;15.43;100.00
13314;BME280;6725;48.112;11.604;2023-05-12T10:52:20;95062.25;;;15.63;100.00
13314;BME280;6725;48.112;11.604;2023-05-12T10:54:46;95062.75;;;15.49;100.00
13314;BME280;6725;48.112;11.604;2023-05-12T10:57:13;95062.25;;;15.63;100.00
13314;BME280;6725;48.112;11.604;2023-05-12T10:59:49;95061.19;;;15.48;100.00
13314;BME280;6725;48.112;11.604;2023-05-12T11:02:18;95064.47;;;15.68;100.00
13314;BME280;6725;48.112;11.604;2023-05-12T11:04:52;95063.84;;;15.39;100.00
13314;BME280;6725;48.112;11.604;2023-05-12T11:07:22;95060.06;;;15.33;100.00
13314;BME280;6725;48.112;11.604;2023-05-12T11:09:48;95064.03;;;15.32;100.00
13314;BME280;6725;48.112;11.604;2023-05-12T11:12:14;95053.47;;;15.06;100.00
13314;BME280;6725;48.112;11.604;2023-05-12T11:14:41;95062.94;;;14.92;100.00
13314;BME280;6725;48.112;11.604;2023-05-12T11:17:07;95065.09;;;14.72;100.00
13314;BME280;6725;48.112;11.604;2023-05-12T11:19:36;95060.06;;;14.71;100.00
13314;BME280;6725;48.112;11.604;2023-05-12T11:22:10;95072.72;;;14.93;100.00
13314;BME280;6725;48.112;11.604;2023-05-12T11:24:37;95064.16;;;14.91;100.00
13314;BME280;6725;48.112;11.604;2023-05-12T11:27:04;95064.72;;;15.11;100.00
13314;BME280;6725;48.112;11.604;2023-05-12T11:29:30;95062.06;;;14.95;100.00
13314;BME280;6725;48.112;11.604;2023-05-12T11:31:56;95063.59;;;14.96;100.00
13314;BME280;6725;48.112;11.604;2023-05-12T11:34:23;95060.50;;;14.94;100.00
13314;BME280;6725;48.112;11.604;2023-05-12T11:36:51;95072.09;;;15.27;100.00
13314;BME280;6725;48.112;11.604;2023-05-12T11:39:27;95063.38;;;15.03;100.00
13314;BME280;6725;48.112;11.604;2023-05-12T11:42:01;95069.97;;;14.93;100.00
13314;BME280;6725;48.112;11.604;2023-05-12T11:44:26;95065.72;;;15.30;100.00
13314;BME280;6725;48.112;11.604;2023-05-12T11:47:21;95070.53;;;15.63;100.00
13314;BME280;6725;48.112;11.604;2023-05-12T11:49:51;95066.69;;;15.48;100.00
13314;BME280;6725;48.112;11.604;2023-05-12T11:52:18;95067.47;;;15.36;100.00
13314;BME280;6725;48.112;11.604;2023-05-12T11:54:48;95066.03;;;15.44;100.00
13314;BME280;6725;48.112;11.604;2023-05-12T11:57:24;95069.31;;;15.64;100.00
13314;BME280;6725;48.112;11.604;2023-05-12T11:59:55;95079.84;;;15.78;100.00
13314;BME280;6725;48.112;11.604;2023-05-12T12:02:22;95081.19;;;15.86;100.00
13314;BME280;6725;48.112;11.604;2023-05-12T12:04:47;95075.25;;;15.75;100.00
13314;BME280;6725;48.112;11.604;2023-05-12T12:07:13;95076.78;;;15.76;100.00
13314;BME280;6725;48.112;11.604;2023-05-12T12:09:39;95075.72;;;15.61;100.00
13314;BME280;6725;48.112;11.604;2023-05-12T12:12:06;95077.38;;;15.46;100.00
13314;BME280;6725;48.112;11.604;2023-05-12T12:14:33;95079.44;;;15.67;100.00
13314;BME280;6725;48.112;11.604;2023-05-12T12:16:59;95080.53;;;15.82;100.00
13314;BME280;6725;48.112;11.604;2023-05-12T12:19:26;95069.78;;;15.50;100.00
13314;BME280;6725;48.112;11.604;2023-05-12T12:21:55;95080.47;;;15.48;100.00
13314;BME280;6725;48.112;11.604;2023-05-12T12:24:21;95095.09;;;15.45;100.00
13314;BME280;6725;48.112;11.604;2023-05-12T12:26:46;95080.66;;;14.91;100.00
13314;BME280;6725;48.112;11.604;2023-05-12T12:29:11;95086.94;;;15.04;100.00
13314;BME280;6725;48.112;11.604;2023-05-12T12:31:37;95094.16;;;14.73;100.00
13314;BME280;6725;48.112;11.604;2023-05-12T12:34:03;95075.16;;;15.04;100.00
13314;BME280;6725;48.112;11.604;2023-05-12T12:36:29;95083.53;;;15.25;100.00
13314;BME280;6725;48.112;11.604;2023-05-12T12:38:54;95083.94;;;14.86;100.00
13314;BME280;6725;48.112;11.604;2023-05-12T12:41:20;95080.88;;;14.97;100.00
13314;BME280;6725;48.112;11.604;2023-05-12T12:43:46;95087.59;;;15.08;100.00
13314;BME280;6725;48.112;11.604;2023-05-12T12:46:11;95074.81;;;15.02;100.00
13314;BME280;6725;48.112;11.604;2023-05-12T12:48:37;95074.94;;;15.61;100.00